Time;durP1;ratioP1;P1;durP2;ratioP2;P2;SDS_P1;SDS_P2;PMS_P1;PMS_P2;Temp;Humidity;BMP_temperature;BMP_pressure;BME280_temperature;BME280_humidity;BME280_pressure;Samples;Min_cycle;Max_cycle;Signal;HPM_P1;HPM_P2
2022/02/01 00:03:34;;;;;;;21.03;4.87;;;9.60;99.90;;;9.44;51.70;101530.44;4963191;28;97066;-62
2022/02/01 00:06:10;;;;;;;21.00;4.90;;;9.50;99.90;;;9.60;54.33;101528.38;4950064;28;98150;-62
2022/02/01 00:35:43;;;;;;;16.90;4.20;;;9.90;99.90;;;9.86;52.75;101542.88;4935495;28;98619;-59
2022/02/01 00:40:37;;;;;;;19.13;4.23;;;9.70;99.90;;;9.57;51.84;101567.97;4926421;28;98989;-61
2022/02/01 00:43:04;;;;;;;17.23;4.13;;;9.50;99.90;;;9.80;52.95;101581.59;4924436;28;96913;-60
2022/02/01 00:45:30;;;;;;;16.47;3.73;;;9.60;99.90;;;10.00;52.33;101583.88;4931747;28;98630;-61
2022/02/01 00:47:56;;;;;;;17.73;3.73;;;9.90;99.90;;;10.08;52.04;101575.81;4935092;28;98055;-59
2022/02/01 00:50:22;;;;;;;16.53;3.63;;;10.00;99.90;;;9.88;50.50;101584.09;4932992;28;97345;-62
2022/02/01 00:52:48;;;;;;;18.23;4.00;;;9.90;99.90;;;10.02;51.31;101587.34;4939568;28;98353;-61
2022/02/01 00:55:14;;;;;;;14.13;4.10;;;9.90;99.90;;;9.94;52.16;101568.16;4935891;28;98629;-60
2022/02/01 00:57:41;;;;;;;17.97;4.07;;;9.80;99.90;;;10.23;52.80;101574.69;4917821;28;100997;-62
2022/02/01 01:00:11;;;;;;;16.27;3.70;;;10.10;99.90;;;9.91;51.05;101596.34;4937746;28;98098;-61
2022/02/01 01:02:38;;;;;;;25.13;4.50;;;9.90;99.90;;;9.77;51.55;101600.09;4937019;28;98394;-58
2022/02/01 01:05:05;;;;;;;17.70;4.03;;;9.70;99.90;;;9.56;51.49;101603.09;4931669;28;98566;-61
2022/02/01 01:07:32;;;;;;;15.73;4.07;;;9.50;99.90;;;9.60;51.77;101601.28;4937557;28;98175;-60
2022/02/01 01:09:59;;;;;;;14.70;3.73;;;9.40;99.90;;;9.84;53.50;101591.19;4923423;28;98270;-61
2022/02/01 01:12:27;;;;;;;16.50;3.90;;;9.70;99.90;;;10.22;53.56;101584.34;4937648;28;97602;-60
2022/02/01 01:15:12;;;;;;;18.70;3.50;;;10.10;99.90;;;10.13;52.24;101569.56;4938734;28;97391;-60
2022/02/01 01:44:41;;;;;;;16.60;4.23;;;10.60;99.90;;;10.62;48.67;101637.19;4936630;28;97063;-61
2022/02/01 01:55:22;;;;;;;11.33;3.27;;;10.80;99.90;;;11.02;50.89;101600.28;4940333;28;96925;-61
2022/02/01 01:57:48;;;;;;;18.53;4.03;;;10.80;99.90;;;11.14;50.98;101617.63;4957347;28;98205;-60
2022/02/01 02:00:39;;;;;;;12.43;3.23;;;11.00;99.90;;;11.24;50.29;101605.03;4932109;28;97756;-61
2022/02/01 02:03:05;;;;;;;10.57;2.83;;;11.10;99.80;;;11.28;49.29;101614.63;4893988;28;98011;-61
2022/02/01 02:05:31;;;;;;;12.87;2.93;;;11.20;99.30;;;11.42;50.10;101625.72;4925916;28;96929;-60
2022/02/01 02:07:57;;;;;;;16.60;3.00;;;11.30;99.80;;;11.32;49.49;101635.66;4959537;28;96744;-61
2022/02/01 02:10:30;;;;;;;15.53;3.13;;;11.20;99.80;;;11.33;49.44;101625.97;4950331;28;97383;-61
2022/02/01 02:15:59;;;;;;;10.77;2.93;;;11.10;99.40;;;11.09;48.86;101647.66;4930247;28;97416;-61
2022/02/01 02:18:35;;;;;;;13.73;3.07;;;11.00;99.10;;;10.69;48.65;101653.75;4909955;28;97466;-62
2022/02/01 02:21:05;;;;;;;12.27;2.60;;;10.70;99.60;;;10.85;48.94;101628.81;4869267;28;97262;-61
2022/02/01 02:23:31;;;;;;;13.87;3.30;;;10.80;99.30;;;10.92;51.43;101625.13;4946596;28;98369;-60
2022/02/01 02:25:58;;;;;;;16.73;3.00;;;10.80;99.90;;;10.77;50.15;101629.88;4956550;28;97179;-62
2022/02/01 02:28:25;;;;;;;12.47;2.90;;;10.80;99.80;;;10.47;50.69;101631.34;4953007;28;97450;-61
2022/02/01 02:30:52;;;;;;;18.50;3.07;;;10.40;99.80;;;10.44;51.41;101634.94;4922322;28;99628;-61
2022/02/01 02:33:20;;;;;;;13.53;3.10;;;10.30;99.90;;;10.14;50.72;101639.84;4952712;28;97691;-61
2022/02/01 02:36:01;;;;;;;11.13;2.77;;;10.00;99.90;;;10.29;51.63;101620.28;4953679;28;98429;-60
2022/02/01 02:38:33;;;;;;;10.63;2.67;;;10.10;99.90;;;10.07;50.06;101621.53;4933967;28;97492;-60
2022/02/01 02:41:11;;;;;;;14.50;3.23;;;10.10;99.90;;;9.97;53.52;101641.03;4957613;28;98181;-58
2022/02/01 02:46:33;;;;;;;11.73;2.67;;;10.10;99.90;;;9.89;51.62;101638.53;4927045;28;97467;-60
2022/02/01 02:49:11;;;;;;;13.57;3.03;;;10.00;99.90;;;9.87;51.83;101634.19;4955307;28;98443;-57
2022/02/01 02:51:39;;;;;;;12.87;3.27;;;9.90;99.90;;;10.25;51.61;101642.31;4944468;28;97583;-59
2022/02/01 02:54:08;;;;;;;13.53;2.73;;;10.20;99.90;;;10.10;50.90;101647.81;4939522;28;97281;-60
2022/02/01 02:56:34;;;;;;;15.97;2.97;;;10.20;99.90;;;9.72;51.36;101646.75;4951693;28;97846;-59
2022/02/01 02:59:00;;;;;;;16.17;2.83;;;9.80;99.90;;;10.01;52.27;101642.75;4954512;28;97259;-60
2022/02/01 03:01:27;;;;;;;10.87;2.60;;;9.90;99.90;;;10.16;53.09;101631.91;4953776;28;101681;-61
2022/02/01 03:03:53;;;;;;;17.23;2.57;;;10.10;99.90;;;10.01;51.20;101633.06;4936139;28;97315;-59
2022/02/01 03:06:19;;;;;;;13.83;2.80;;;10.10;99.90;;;10.19;52.48;101625.72;4956467;28;97188;-57
2022/02/01 03:08:46;;;;;;;12.73;2.70;;;10.20;99.90;;;9.93;51.43;101634.09;4956669;28;97397;-59
2022/02/01 03:11:15;;;;;;;12.30;2.87;;;10.00;99.90;;;9.71;53.43;101630.97;4957851;28;97331;-60
2022/02/01 03:13:47;;;;;;;10.93;2.60;;;9.80;99.90;;;9.94;53.67;101641.09;4950149;28;98071;-59
2022/02/01 03:21:32;;;;;;;18.80;2.93;;;9.90;99.90;;;9.76;51.57;101632.59;4956334;28;96982;-61
2022/02/01 03:23:58;;;;;;;12.13;2.90;;;9.80;99.90;;;9.66;51.68;101620.47;4941623;28;97544;-60
2022/02/01 03:26:24;;;;;;;11.97;3.07;;;9.80;99.90;;;9.87;52.98;101634.19;4952641;28;97694;-61
2022/02/01 03:28:50;;;;;;;11.63;2.53;;;9.80;99.90;;;10.01;51.75;101632.19;4958387;28;100615;-60
2022/02/01 03:31:17;;;;;;;14.60;2.93;;;10.00;99.90;;;9.89;50.62;101637.69;4954876;28;97560;-67
2022/02/01 03:33:44;;;;;;;10.53;2.70;;;10.00;99.90;;;9.83;51.84;101628.97;4938499;28;96937;-58
2022/02/01 03:36:10;;;;;;;13.93;2.57;;;9.90;99.90;;;9.97;53.21;101630.50;4953917;28;98487;-60
2022/02/01 03:38:37;;;;;;;10.53;2.63;;;9.90;99.90;;;10.34;52.74;101631.59;4952341;28;117946;-60
2022/02/01 03:41:04;;;;;;;14.07;3.17;;;10.30;99.90;;;10.64;52.46;101613.41;4937932;28;97381;-61
2022/02/01 03:43:32;;;;;;;9.80;3.20;;;10.70;99.90;;;10.77;51.08;101609.63;4951491;28;98372;-62
2022/02/01 03:45:58;;;;;;;14.90;2.70;;;10.90;99.50;;;11.14;51.08;101603.50;4939217;28;97818;-60
2022/02/01 03:48:34;;;;;;;11.60;3.10;;;11.20;99.90;;;11.44;49.27;101601.94;4952127;28;101678;-60
2022/02/01 03:51:00;;;;;;;11.20;3.20;;;11.50;99.10;;;11.77;49.45;101606.38;4952667;28;101277;-60
2022/02/01 03:53:27;;;;;;;13.23;2.93;;;11.90;99.70;;;12.01;48.67;101618.16;4908185;28;97310;-61
2022/02/01 03:55:53;;;;;;;12.53;3.00;;;12.20;99.00;;;12.20;48.25;101615.88;4935573;28;97554;-60
2022/02/01 03:58:20;;;;;;;10.27;2.77;;;12.30;98.80;;;12.35;47.84;101611.94;4948583;28;98842;-61
2022/02/01 04:00:46;;;;;;;11.60;3.00;;;12.50;98.50;;;12.41;47.29;101604.69;4956372;28;97733;-61
2022/02/01 04:03:11;;;;;;;13.07;3.20;;;12.50;97.70;;;12.42;47.13;101605.53;4952199;28;97071;-60
2022/02/01 04:05:37;;;;;;;10.13;2.73;;;12.40;98.30;;;12.52;46.94;101597.31;4953730;28;96930;-61
2022/02/01 04:08:04;;;;;;;10.47;2.87;;;12.60;98.00;;;12.50;47.48;101616.78;4934647;28;97259;-61
2022/02/01 04:10:30;;;;;;;8.23;2.50;;;12.60;98.00;;;12.63;47.40;101609.38;4953651;28;98126;-62
2022/02/01 04:12:57;;;;;;;16.63;2.93;;;12.70;97.90;;;12.64;46.70;101605.81;4954518;28;97407;-61
2022/02/01 04:15:27;;;;;;;12.17;2.77;;;12.80;96.90;;;12.68;47.18;101613.59;4949263;28;97862;-61
2022/02/01 04:17:54;;;;;;;12.20;2.90;;;12.70;97.50;;;12.67;45.67;101614.53;4951341;28;97701;-62
2022/02/01 04:20:20;;;;;;;11.40;3.03;;;12.80;95.30;;;12.75;46.85;101615.19;4953607;28;98866;-62
2022/02/01 04:22:46;;;;;;;10.73;2.77;;;12.80;97.60;;;12.87;46.48;101605.97;4955534;28;97227;-61
2022/02/01 04:25:12;;;;;;;12.80;3.73;;;13.00;97.40;;;12.94;46.71;101615.47;4937989;28;97009;-61
2022/02/01 04:27:38;;;;;;;15.10;3.40;;;13.10;97.10;;;13.04;46.60;101602.84;4933907;28;99438;-62
2022/02/01 04:30:08;;;;;;;13.67;3.03;;;13.30;97.10;;;13.14;46.20;101591.03;4955341;28;97283;-62
2022/02/01 04:32:49;;;;;;;16.97;3.60;;;13.30;96.90;;;13.15;45.75;101587.47;4932851;28;96999;-61
2022/02/01 04:35:28;;;;;;;14.13;3.50;;;13.30;96.10;;;13.27;45.65;101592.41;4939901;28;98494;-61
2022/02/01 04:37:57;;;;;;;14.60;3.83;;;13.40;95.70;;;13.32;45.66;101574.59;4943499;28;100416;-61
2022/02/01 04:40:28;;;;;;;8.83;2.80;;;13.50;96.50;;;13.38;45.21;101577.03;4932362;28;97222;-61
2022/02/01 04:42:56;;;;;;;11.93;2.87;;;13.60;96.30;;;13.44;45.26;101572.44;4943499;28;98361;-61
2022/02/01 04:45:24;;;;;;;13.53;3.10;;;13.70;96.20;;;13.51;45.22;101563.38;4954414;28;97465;-61
2022/02/01 04:47:52;;;;;;;6.57;2.23;;;13.70;96.00;;;13.54;45.01;101569.44;4958064;28;99813;-61
2022/02/01 04:50:23;;;;;;;9.10;3.20;;;13.70;96.00;;;13.49;45.05;101567.88;4954926;28;97283;-64
2022/02/01 04:52:52;;;;;;;14.10;3.07;;;13.60;95.40;;;13.54;45.04;101566.78;4951435;28;97280;-61
2022/02/01 04:55:20;;;;;;;10.53;2.80;;;13.70;96.10;;;13.50;44.91;101565.16;4934913;28;97269;-60
2022/02/01 04:57:54;;;;;;;9.20;2.90;;;13.60;96.20;;;13.30;45.15;101544.59;4956536;28;97966;-60
2022/02/01 05:00:29;;;;;;;10.23;2.63;;;13.30;96.40;;;13.38;45.39;101545.22;4947660;28;97284;-62
2022/02/01 05:02:57;;;;;;;6.77;2.57;;;13.40;96.50;;;13.36;45.14;101555.03;4955627;28;97060;-61
2022/02/01 05:05:30;;;;;;;12.80;3.53;;;13.50;95.90;;;13.43;44.68;101560.09;4956711;28;97380;-61
2022/02/01 05:08:04;;;;;;;13.67;2.97;;;13.60;95.40;;;13.50;45.04;101567.81;4957482;28;97168;-61
2022/02/01 05:10:34;;;;;;;7.50;2.53;;;13.70;95.90;;;13.54;44.54;101576.53;4929397;28;98605;-62
2022/02/01 05:15:51;;;;;;;11.40;3.00;;;13.80;95.60;;;13.60;44.89;101577.19;4930779;28;97089;-62
2022/02/01 05:18:21;;;;;;;8.07;2.53;;;13.90;95.10;;;13.61;44.64;101583.38;4953078;28;97382;-63
2022/02/01 05:20:58;;;;;;;9.43;2.83;;;13.80;95.30;;;13.48;44.89;101597.94;4959531;28;103420;-61
2022/02/01 05:23:26;;;;;;;11.83;2.70;;;13.70;95.30;;;13.18;45.27;101603.31;4951456;28;97438;-60
2022/02/01 05:25:57;;;;;;;16.07;3.17;;;13.30;96.20;;;13.22;45.57;101593.47;4956535;28;96864;-62
2022/02/01 05:28:23;;;;;;;6.70;2.60;;;13.30;96.00;;;13.22;45.77;101589.03;4918495;28;97235;-61
2022/02/01 05:30:50;;;;;;;10.30;2.70;;;13.40;96.20;;;13.23;45.71;101589.91;4956179;28;99456;-61
2022/02/01 05:33:15;;;;;;;12.03;3.13;;;13.40;96.10;;;13.12;45.73;101576.97;4958318;28;96958;-67
2022/02/01 05:35:41;;;;;;;11.13;3.63;;;13.40;95.90;;;13.25;45.51;101594.25;4957086;28;97029;-61
2022/02/01 05:38:07;;;;;;;13.63;2.90;;;13.50;96.00;;;13.27;45.16;101587.09;4956551;28;97399;-61
2022/02/01 05:40:33;;;;;;;6.73;2.23;;;13.50;95.80;;;13.29;45.88;101574.66;4952287;28;97135;-61
2022/02/01 05:43:05;;;;;;;10.70;2.93;;;13.50;96.00;;;13.32;45.60;101585.19;4958339;28;97907;-60
2022/02/01 05:45:37;;;;;;;11.73;3.50;;;13.40;95.80;;;13.15;45.69;101582.16;4953869;28;97617;-61
2022/02/01 05:48:04;;;;;;;7.67;2.50;;;13.30;96.00;;;13.33;45.12;101571.03;4957574;28;97548;-62
2022/02/01 05:50:31;;;;;;;13.70;2.90;;;13.50;95.90;;;13.35;45.50;101561.25;4950600;28;97523;-61
2022/02/01 05:52:57;;;;;;;9.17;2.83;;;13.60;95.70;;;13.42;45.46;101547.78;4955356;28;97190;-61
2022/02/01 05:55:25;;;;;;;9.03;2.50;;;13.60;96.20;;;13.53;45.37;101545.63;4939658;28;97067;-61
2022/02/01 05:57:53;;;;;;;11.20;3.20;;;13.80;95.70;;;13.56;45.03;101534.91;4958581;28;97925;-60
2022/02/01 06:00:37;;;;;;;8.53;2.20;;;13.80;95.70;;;13.24;45.58;101526.28;4933467;28;98222;-60
2022/02/01 06:03:03;;;;;;;12.97;3.50;;;13.20;96.30;;;13.35;45.38;101526.78;4958738;28;97200;-61
2022/02/01 06:05:29;;;;;;;9.53;2.73;;;13.40;96.30;;;13.45;45.33;101521.16;4933200;28;97352;-61
2022/02/01 06:07:56;;;;;;;12.37;3.53;;;13.50;96.10;;;13.14;43.65;101518.63;4958779;28;98304;-60
2022/02/01 06:10:22;;;;;;;8.93;2.83;;;13.20;94.10;;;12.96;43.47;101512.16;4949947;28;98400;-61
2022/02/01 06:12:50;;;;;;;10.57;2.80;;;12.90;94.50;;;12.96;46.19;101506.84;4955356;28;96782;-60
2022/02/01 06:19:05;;;;;;;17.60;3.67;;;12.50;96.80;;;12.35;45.30;101506.09;5412000;22;97520;-61
2022/02/01 06:21:31;;;;;;;5.47;2.13;;;12.00;96.20;;;12.08;48.09;101505.97;4954155;28;114621;-61
2022/02/01 06:23:57;;;;;;;15.13;3.63;;;11.50;98.20;;;11.85;47.42;101497.81;4959598;28;97011;-61
2022/02/01 06:26:28;;;;;;;14.50;3.63;;;11.20;98.40;;;11.53;48.38;101494.25;4957916;28;97707;-59
2022/02/01 06:28:54;;;;;;;8.63;2.60;;;10.80;98.70;;;11.72;49.84;101485.84;4958567;28;97929;-60
2022/02/01 06:31:20;;;;;;;12.10;2.77;;;11.10;99.90;;;11.56;48.71;101491.50;4956305;28;97179;-61
2022/02/01 06:33:46;;;;;;;16.77;3.00;;;11.00;98.70;;;11.77;49.71;101495.38;4956780;28;106348;-60
2022/02/01 06:36:12;;;;;;;12.97;3.03;;;11.30;99.90;;;12.03;49.26;101504.38;4957533;28;97444;-60
2022/02/01 06:38:38;;;;;;;13.77;2.90;;;11.70;99.40;;;12.09;46.64;101510.34;4939404;28;99021;-60
2022/02/01 06:41:04;;;;;;;11.80;2.90;;;12.00;96.50;;;12.44;48.06;101508.47;4959630;28;97371;-60
2022/02/01 06:43:30;;;;;;;7.97;2.53;;;12.40;98.40;;;12.68;47.33;101507.72;4951335;28;97370;-59
2022/02/01 06:45:58;;;;;;;9.77;2.60;;;12.70;97.90;;;12.82;45.16;101488.75;4959422;28;98436;-60
2022/02/01 06:48:25;;;;;;;10.90;2.90;;;13.00;95.80;;;12.70;45.03;101490.00;4952071;28;96940;-60
2022/02/01 06:50:52;;;;;;;11.83;2.90;;;12.70;95.30;;;12.29;44.60;101493.03;4957085;28;97345;-60
2022/02/01 06:53:20;;;;;;;13.23;3.20;;;12.10;95.60;;;12.08;44.93;101507.75;4956055;28;97648;-61
2022/02/01 06:55:58;;;;;;;10.40;2.83;;;11.80;96.40;;;11.93;48.27;101503.78;4957452;28;96886;-60
2022/02/01 06:58:24;;;;;;;9.60;2.80;;;11.40;98.30;;;12.11;45.04;101503.25;4934566;28;97790;-61
2022/02/01 07:00:50;;;;;;;8.10;2.27;;;11.80;96.10;;;12.21;48.51;101488.84;4955776;28;97703;-61
2022/02/01 07:03:15;;;;;;;8.40;2.50;;;11.90;99.10;;;12.43;48.17;101501.44;4960013;28;96822;-61
2022/02/01 07:05:41;;;;;;;9.07;2.33;;;12.30;98.60;;;12.53;47.69;101492.31;4952313;28;97049;-60
2022/02/01 07:08:07;;;;;;;6.13;2.40;;;12.40;98.10;;;12.50;47.05;101476.53;4959402;28;97369;-60
2022/02/01 07:10:33;;;;;;;9.43;2.83;;;12.40;96.30;;;12.56;47.51;101471.03;4953182;28;97307;-61
2022/02/01 07:13:00;;;;;;;13.60;3.43;;;12.40;98.00;;;12.36;45.37;101476.09;4942190;28;97234;-60
2022/02/01 07:15:25;;;;;;;7.53;2.70;;;12.10;96.50;;;12.62;47.56;101481.44;4954834;28;97205;-60
2022/02/01 07:18:03;;;;;;;12.70;3.40;;;12.40;98.40;;;12.62;46.18;101476.16;4957041;28;97356;-61
2022/02/01 07:20:32;;;;;;;12.47;3.40;;;12.50;95.20;;;12.42;45.52;101458.22;4920139;28;99178;-60
2022/02/01 07:22:58;;;;;;;7.90;2.90;;;12.20;96.20;;;12.27;46.08;101457.81;4946042;28;97561;-59
2022/02/01 07:25:32;;;;;;;10.70;3.27;;;11.80;97.30;;;12.11;46.29;101455.63;4942019;28;98355;-68
2022/02/01 07:28:36;;;;;;;9.97;2.53;;;11.70;97.10;;;12.23;45.86;101466.78;4931538;28;99008;-60
2022/02/01 07:31:09;;;;;;;12.03;2.87;;;11.80;98.40;;;12.18;48.70;101475.72;4938538;28;103854;-59
2022/02/01 07:33:37;;;;;;;12.87;3.23;;;11.70;99.30;;;11.97;45.60;101463.09;4941465;28;98193;-60
2022/02/01 07:36:04;;;;;;;11.23;3.37;;;11.60;97.50;;;11.66;48.61;101459.56;4948053;28;98850;-61
2022/02/01 07:38:32;;;;;;;11.87;3.43;;;11.10;98.10;;;11.58;49.65;101458.00;4943694;28;98257;-61
2022/02/01 07:40:59;;;;;;;14.00;3.30;;;11.00;99.80;;;11.56;48.41;101462.44;4948866;28;97984;-61
2022/02/01 07:43:31;;;;;;;9.73;3.57;;;11.00;99.90;;;11.43;49.74;101455.78;4924878;28;97410;-59
2022/02/01 07:46:07;;;;;;;8.23;2.10;;;10.80;99.20;;;11.45;50.74;101456.59;4947454;28;99118;-60
2022/02/01 07:48:35;;;;;;;10.40;3.40;;;10.80;99.90;;;11.38;48.54;101460.28;4905879;28;98403;-59
2022/02/01 07:51:02;;;;;;;11.90;4.03;;;10.80;99.70;;;11.52;47.50;101462.56;4931398;28;97605;-61
2022/02/01 08:01:40;;;;;;;13.03;4.63;;;11.60;99.90;;;12.18;47.34;101464.28;4935470;28;97406;-60
2022/02/01 08:07:47;;;;;;;13.43;4.83;;;12.30;99.10;;;12.49;47.10;101440.41;4940922;23;105463;-61
2022/02/01 08:10:15;;;;;;;15.10;5.23;;;12.30;97.20;;;12.48;45.90;101443.97;4968835;28;99205;-61
2022/02/01 08:20:52;;;;;;;15.60;4.33;;;11.40;99.90;;;11.78;49.44;101438.06;4977590;28;97739;-60
2022/02/01 08:23:17;;;;;;;13.37;4.80;;;11.20;99.90;;;11.77;48.10;101439.00;4978631;28;99224;-66
2022/02/01 08:25:43;;;;;;;7.97;3.33;;;11.30;99.70;;;11.93;49.88;101437.66;4964307;28;98270;-60
2022/02/01 08:28:12;;;;;;;13.30;5.30;;;11.40;99.90;;;11.81;48.85;101448.59;4964996;28;98071;-61
2022/02/01 08:30:38;;;;;;;9.17;3.73;;;11.50;99.60;;;11.76;50.11;101439.91;4976644;28;98641;-61
2022/02/01 08:33:06;;;;;;;12.33;4.63;;;11.30;99.90;;;11.76;50.21;101424.03;4980712;28;97580;-62
2022/02/01 08:35:35;;;;;;;19.97;6.10;;;11.30;99.90;;;11.50;49.45;101416.84;4978613;28;97052;-61
2022/02/01 08:38:01;;;;;;;19.03;6.23;;;11.20;99.90;;;11.20;51.37;101403.53;4959780;28;97321;-61
2022/02/01 08:40:27;;;;;;;14.80;5.83;;;10.80;99.90;;;11.43;49.88;101395.00;4956600;28;97007;-61
2022/02/01 08:44:05;;;;;;;15.37;6.17;;;11.10;99.90;;;11.35;50.17;101402.28;4960247;28;98057;-61
2022/02/01 08:54:43;;;;;;;16.40;6.73;;;11.10;99.90;;;11.31;50.81;101390.06;4812834;28;98117;-61
2022/02/01 08:57:22;;;;;;;18.37;6.10;;;10.90;99.90;;;11.31;50.73;101387.41;4917254;28;99002;-61
2022/02/01 08:59:55;;;;;;;12.00;4.57;;;10.90;99.90;;;11.21;51.98;101384.16;4968995;28;101616;-59
2022/02/01 09:02:27;;;;;;;20.10;7.57;;;10.80;99.90;;;11.05;52.13;101382.81;4978147;28;98347;-61
2022/02/01 09:04:54;;;;;;;14.93;6.40;;;10.70;99.90;;;11.12;52.26;101370.31;4981984;28;97031;-60
2022/02/01 09:07:20;;;;;;;12.50;5.60;;;10.70;99.90;;;10.78;53.27;101363.28;4977213;28;99367;-60
2022/02/01 09:09:47;;;;;;;17.00;7.00;;;10.50;99.90;;;10.82;53.17;101358.78;4962519;28;103986;-61
2022/02/01 09:12:16;;;;;;;13.83;6.30;;;10.60;99.90;;;10.84;53.51;101357.84;4964264;28;96828;-61
2022/02/01 09:14:44;;;;;;;12.80;6.50;;;10.50;99.90;;;10.58;53.81;101341.81;4975393;28;97359;-60
2022/02/01 09:17:13;;;;;;;14.23;6.60;;;10.30;99.90;;;10.63;54.21;101326.72;4963778;28;98295;-62
2022/02/01 09:19:41;;;;;;;14.30;5.90;;;10.20;99.90;;;10.66;54.32;101327.50;4972352;28;99042;-60
2022/02/01 09:22:13;;;;;;;15.90;6.50;;;10.30;99.90;;;10.82;53.53;101327.13;4981491;28;98669;-59
2022/02/01 09:24:42;;;;;;;18.07;7.63;;;10.40;99.90;;;10.89;53.34;101329.56;4957305;28;97364;-60
2022/02/01 09:27:09;;;;;;;11.83;4.70;;;10.60;99.90;;;10.90;53.65;101320.75;4963058;28;97504;-59
2022/02/01 09:29:37;;;;;;;12.03;6.00;;;10.60;99.90;;;10.82;53.74;101320.06;4945574;28;97405;-62
2022/02/01 09:32:05;;;;;;;9.00;5.33;;;10.60;99.90;;;10.99;53.28;101307.31;4972689;28;96855;-59
2022/02/01 09:34:32;;;;;;;13.60;6.47;;;10.70;99.90;;;11.21;52.37;101288.22;4941457;28;98507;-59
2022/02/01 09:37:00;;;;;;;10.03;6.27;;;10.90;99.90;;;11.12;53.21;101285.81;4974865;28;97839;-62
2022/02/01 09:39:26;;;;;;;12.00;6.17;;;11.00;99.90;;;11.05;53.53;101287.78;4903584;28;97802;-61
2022/02/01 09:41:53;;;;;;;10.07;5.83;;;10.70;99.90;;;11.10;53.05;101277.09;4950461;28;98414;-61
2022/02/01 09:44:22;;;;;;;8.80;4.77;;;10.80;99.90;;;11.12;53.30;101268.19;4963820;28;98124;-61
2022/02/01 09:46:51;;;;;;;10.07;5.27;;;10.80;99.90;;;10.97;53.98;101266.00;4979667;28;97515;-60
2022/02/01 09:49:27;;;;;;;8.83;5.77;;;10.70;99.90;;;10.94;53.98;101255.53;4962275;28;97352;-65
2022/02/01 09:51:57;;;;;;;7.33;5.20;;;10.50;99.90;;;10.77;54.93;101250.72;4965778;28;99902;-55
2022/02/01 09:54:29;;;;;;;10.17;5.93;;;10.40;99.90;;;10.75;54.93;101230.56;4981871;28;97797;-59
2022/02/01 09:57:02;;;;;;;6.43;4.90;;;10.40;99.90;;;10.78;54.75;101223.41;4984299;28;97249;-56
2022/02/01 09:59:34;;;;;;;5.87;3.60;;;10.30;99.90;;;10.96;54.03;101222.88;4979276;28;99973;-59
2022/02/01 10:02:16;;;;;;;7.03;4.30;;;10.60;99.90;;;10.77;55.26;101219.03;4966166;28;97580;-61
2022/02/01 10:04:42;;;;;;;8.97;5.57;;;10.40;99.90;;;10.68;55.86;101214.00;4963949;28;99641;-60
2022/02/01 10:07:14;;;;;;;6.57;4.10;;;10.30;99.90;;;10.92;54.35;101209.84;4982938;28;97340;-58
2022/02/01 10:09:54;;;;;;;7.60;4.57;;;10.50;99.90;;;10.93;54.74;101219.47;4979534;28;99237;-60
2022/02/01 10:12:20;;;;;;;6.80;3.80;;;10.50;99.90;;;11.01;54.06;101217.50;4979337;28;97258;-61
2022/02/01 10:15:03;;;;;;;4.27;2.90;;;10.60;99.90;;;11.19;53.62;101200.25;4985061;28;98130;-59
2022/02/01 10:17:49;;;;;;;7.80;4.33;;;10.80;99.90;;;11.13;54.75;101181.94;4965860;28;100536;-61
2022/02/01 10:20:17;;;;;;;6.10;3.10;;;10.90;99.90;;;11.13;54.41;101164.31;4965798;28;99871;-57
2022/02/01 10:22:44;;;;;;;8.53;4.60;;;10.90;99.90;;;11.24;53.88;101161.34;4971538;28;97960;-60
2022/02/01 10:25:30;;;;;;;5.43;2.60;;;10.90;99.90;;;11.17;54.07;101149.28;4937724;28;98505;-58
2022/02/01 10:28:01;;;;;;;5.20;3.20;;;10.90;99.90;;;11.18;53.96;101143.06;4948560;28;100997;-60
2022/02/01 10:30:39;;;;;;;6.93;3.70;;;10.90;99.90;;;11.00;54.69;101137.44;4954001;28;98731;-61
2022/02/01 10:33:17;;;;;;;7.10;3.47;;;10.70;99.90;;;10.80;55.40;101133.63;4955536;28;99039;-60
2022/02/01 10:35:56;;;;;;;5.60;2.33;;;10.60;99.90;;;11.02;54.28;101142.69;4969631;28;98415;-59
2022/02/01 10:38:31;;;;;;;4.63;3.20;;;10.80;99.90;;;11.05;54.58;101139.06;4981315;28;99478;-60
2022/02/01 10:40:57;;;;;;;5.27;3.17;;;10.90;99.90;;;10.91;55.34;101134.19;4966419;28;98006;-61
2022/02/01 10:43:29;;;;;;;3.80;2.83;;;10.70;99.90;;;11.10;54.42;101137.16;4963878;28;97840;-61
2022/02/01 10:46:12;;;;;;;5.47;3.10;;;10.80;99.90;;;11.21;53.84;101125.34;4984624;28;100070;-59
2022/02/01 10:48:45;;;;;;;6.03;3.13;;;10.90;99.90;;;11.25;53.63;101120.84;4978326;28;98118;-60
2022/02/01 10:51:16;;;;;;;4.07;2.23;;;11.10;99.90;;;11.46;53.30;101122.81;4982709;28;98925;-61
2022/02/01 10:53:43;;;;;;;2.20;1.77;;;11.20;99.90;;;11.51;53.08;101107.69;4980001;28;97327;-60
2022/02/01 10:56:16;;;;;;;8.63;3.47;;;11.40;99.90;;;11.53;53.53;101105.84;4969335;28;97909;-60
2022/02/01 10:58:45;;;;;;;6.00;2.70;;;11.30;99.90;;;11.89;51.78;101081.78;4979216;28;101666;-61
2022/02/01 11:01:14;;;;;;;4.07;2.30;;;11.70;99.90;;;12.17;51.14;101073.75;4965555;28;97650;-60
2022/02/01 11:03:46;;;;;;;4.53;2.90;;;12.10;99.90;;;12.12;51.69;101067.75;4979347;28;99092;-60
2022/02/01 11:06:17;;;;;;;4.27;2.53;;;12.00;99.90;;;12.01;51.94;101080.50;4964664;28;97808;-60
2022/02/01 11:08:46;;;;;;;2.27;1.57;;;11.90;99.90;;;12.11;51.46;101082.75;4975333;28;103982;-60
2022/02/01 11:11:21;;;;;;;5.93;3.03;;;12.00;99.90;;;12.23;51.06;101075.31;4966150;28;97956;-60
2022/02/01 11:14:05;;;;;;;4.63;2.13;;;12.10;99.90;;;12.25;51.87;101049.66;4959308;28;97956;-57
2022/02/01 11:16:31;;;;;;;4.47;2.57;;;12.20;99.90;;;12.45;50.80;101050.69;4873722;28;97871;-61
2022/02/01 11:23:05;;;;;;;4.00;2.17;;;12.50;99.90;;;12.58;50.49;101045.75;4955741;28;99683;-60
2022/02/01 11:26:09;;;;;;;5.00;1.90;;;12.50;99.90;;;12.70;50.23;101040.00;4912794;28;98224;-61
2022/02/01 11:28:43;;;;;;;3.17;2.00;;;12.80;99.90;;;12.71;49.84;101028.50;4931551;28;97563;-60
2022/02/01 11:31:47;;;;;;;4.23;1.80;;;12.80;99.90;;;12.51;51.29;101017.81;4890407;28;96910;-61
2022/02/01 11:34:17;;;;;;;5.00;2.03;;;12.50;99.90;;;12.51;51.15;101012.53;4953396;28;100932;-62
2022/02/01 11:37:08;;;;;;;4.30;2.07;;;12.50;99.90;;;12.78;49.92;101011.47;4981529;28;97793;-60
2022/02/01 11:39:34;;;;;;;2.27;1.23;;;12.80;99.90;;;12.76;51.37;101013.31;4962745;28;97350;-60
2022/02/01 11:42:15;;;;;;;3.70;2.13;;;12.80;99.90;;;12.88;49.82;100995.25;4948427;28;102164;-60
2022/02/01 11:44:41;;;;;;;2.10;1.80;;;12.90;99.90;;;12.87;50.91;100982.91;4967276;28;97585;-61
2022/02/01 11:47:31;;;;;;;2.57;1.50;;;13.00;99.90;;;13.12;49.05;100978.34;4920980;28;97338;-61
2022/02/01 11:51:20;;;;;;;3.03;1.80;;;13.30;99.20;;;13.04;49.76;100946.03;4941302;28;97682;-62
2022/02/01 11:54:00;;;;;;;3.03;1.90;;;13.10;99.90;;;13.05;50.62;100964.50;4781598;28;103891;-60
2022/02/01 11:56:41;;;;;;;3.13;1.93;;;13.10;99.90;;;13.08;51.20;100960.88;4967614;28;97299;-60
2022/02/01 11:59:07;;;;;;;6.23;2.43;;;13.20;99.90;;;12.95;51.87;100954.34;4981242;28;98220;-60
2022/02/01 12:01:39;;;;;;;2.17;1.57;;;13.00;99.90;;;12.93;51.92;100942.94;4954607;28;99817;-62
2022/02/01 12:04:16;;;;;;;3.33;2.07;;;13.00;99.90;;;13.00;50.70;100947.06;4976853;28;99086;-60
2022/02/01 12:06:54;;;;;;;2.63;1.50;;;13.00;99.90;;;13.09;50.07;100952.00;4906796;28;98423;-61
2022/02/01 12:09:24;;;;;;;2.07;1.67;;;13.20;99.90;;;12.87;51.32;100952.00;4949307;28;98519;-59
2022/02/01 12:12:01;;;;;;;4.30;1.97;;;13.00;99.90;;;12.49;53.30;100949.09;4959512;28;98072;-61
2022/02/01 12:14:36;;;;;;;2.23;1.80;;;12.70;99.90;;;12.59;52.42;100946.97;4888673;28;98767;-60
2022/02/01 12:17:04;;;;;;;3.97;2.20;;;12.80;99.90;;;12.20;53.93;100938.78;4896149;28;101317;-61
2022/02/01 12:19:55;;;;;;;1.83;1.60;;;12.40;99.90;;;12.30;53.33;100934.00;4976215;28;96922;-61
2022/02/01 12:22:39;;;;;;;1.60;1.37;;;12.50;99.90;;;12.29;53.44;100921.66;4958957;28;96996;-61